Overview Statistics Trail Chart Weather Telemetry Raw packets
 

This is the latest recevied weather packets stored in our database for station/object LA4M-10. If no packets are shown the sender has not sent any weather packets the latest 10 day(s).

<< 27 28 29 30 31 32 33 >>
Time Temp. Humidity Pressure Rain* Wind** Luminosity Snow
1787859433 15.56° C 100% 955.4 hPa - - - -
1787858533 15.56° C 100% 955.3 hPa - - - -
1787857632 15.56° C 100% 955.2 hPa - - - -
1787856732 15.56° C 100% 955.3 hPa - - - -
1787855832 15.56° C 100% 955.1 hPa - - - -
1787854932 15.56° C 100% 955.3 hPa - - - -
1787854034 16.11° C 100% 955.3 hPa - - - -
1787853132 17.78° C 100% 955.3 hPa - - - -
1787852232 18.89° C 100% 955.1 hPa - - - -
1787851332 19.44° C 100% 954.9 hPa - - - -
1787850431 19.44° C 99% 954.9 hPa - - - -
1787849531 19.44° C 97% 955 hPa - - - -
1787848631 19.44° C 96% 955.1 hPa - - - -
1787847731 20° C 91% 955.2 hPa - - - -
1787846831 20° C 93% 955.3 hPa - - - -
1787845931 20° C 91% 955.5 hPa - - - -
1787845031 19.44° C 95% 955.6 hPa - - - -
1787844131 20° C 94% 955.6 hPa - - - -
1787843231 19.44° C 97% 955.7 hPa - - - -
1787842330 20° C 100% 955.9 hPa - - - -
1787841430 20° C 100% 956 hPa - - - -
1787840530 20.56° C 90% 956.2 hPa - - - -
1787839630 21.67° C 80% 956.1 hPa - - - -
1787838730 21.11° C 88% 956.3 hPa - - - -
1787837830 21.67° C 85% 956.4 hPa - - - -

* Rain since midnight (hover to see other rain measurements)
** Current wind speed in m/s (hover to see current wind gust speed)